sensor_id;sensor_type;location;lat;lon;timestamp;P1;durP1;ratioP1;P2;durP2;ratioP2
10383;SDS011;5238;43.508;4.980;2023-04-19T00:01:48;11.13;;;8.85;;
10383;SDS011;5238;43.508;4.980;2023-04-19T00:04:17;10.85;;;8.88;;
10383;SDS011;5238;43.508;4.980;2023-04-19T00:06:46;9.27;;;7.15;;
10383;SDS011;5238;43.508;4.980;2023-04-19T00:09:16;9.07;;;8.23;;
10383;SDS011;5238;43.508;4.980;2023-04-19T00:11:46;9.32;;;8.05;;
10383;SDS011;5238;43.508;4.980;2023-04-19T00:14:13;7.50;;;6.80;;
10383;SDS011;5238;43.508;4.980;2023-04-19T00:16:56;7.90;;;6.57;;
10383;SDS011;5238;43.508;4.980;2023-04-19T00:19:28;8.00;;;6.68;;
10383;SDS011;5238;43.508;4.980;2023-04-19T00:21:56;7.47;;;6.75;;
10383;SDS011;5238;43.508;4.980;2023-04-19T00:24:24;8.40;;;7.00;;
10383;SDS011;5238;43.508;4.980;2023-04-19T00:26:51;6.57;;;5.63;;
10383;SDS011;5238;43.508;4.980;2023-04-19T00:29:18;6.85;;;6.15;;
10383;SDS011;5238;43.508;4.980;2023-04-19T00:31:47;7.25;;;6.45;;
10383;SDS011;5238;43.508;4.980;2023-04-19T00:34:18;7.28;;;6.20;;
10383;SDS011;5238;43.508;4.980;2023-04-19T00:36:50;7.20;;;6.50;;
10383;SDS011;5238;43.508;4.980;2023-04-19T00:39:18;6.18;;;5.60;;
10383;SDS011;5238;43.508;4.980;2023-04-19T00:41:51;6.70;;;5.90;;
10383;SDS011;5238;43.508;4.980;2023-04-19T00:44:21;7.88;;;5.63;;
10383;SDS011;5238;43.508;4.980;2023-04-19T00:46:51;6.03;;;5.40;;
10383;SDS011;5238;43.508;4.980;2023-04-19T00:49:27;6.60;;;5.95;;
10383;SDS011;5238;43.508;4.980;2023-04-19T00:51:56;6.40;;;5.45;;
10383;SDS011;5238;43.508;4.980;2023-04-19T00:54:23;7.05;;;5.82;;
10383;SDS011;5238;43.508;4.980;2023-04-19T00:56:51;6.82;;;5.70;;
10383;SDS011;5238;43.508;4.980;2023-04-19T00:59:21;6.65;;;5.90;;
10383;SDS011;5238;43.508;4.980;2023-04-19T01:01:49;6.20;;;5.60;;
10383;SDS011;5238;43.508;4.980;2023-04-19T01:04:16;5.63;;;5.03;;
10383;SDS011;5238;43.508;4.980;2023-04-19T01:06:53;6.03;;;5.20;;
10383;SDS011;5238;43.508;4.980;2023-04-19T01:09:30;6.75;;;5.80;;
10383;SDS011;5238;43.508;4.980;2023-04-19T01:12:02;7.78;;;5.57;;
10383;SDS011;5238;43.508;4.980;2023-04-19T01:14:33;7.45;;;5.55;;
10383;SDS011;5238;43.508;4.980;2023-04-19T01:17:02;6.32;;;5.40;;
10383;SDS011;5238;43.508;4.980;2023-04-19T01:19:30;6.57;;;5.97;;
10383;SDS011;5238;43.508;4.980;2023-04-19T01:22:07;5.95;;;5.35;;
10383;SDS011;5238;43.508;4.980;2023-04-19T01:24:37;6.30;;;5.28;;
10383;SDS011;5238;43.508;4.980;2023-04-19T01:27:16;6.88;;;5.95;;
10383;SDS011;5238;43.508;4.980;2023-04-19T01:29:58;7.60;;;5.97;;
10383;SDS011;5238;43.508;4.980;2023-04-19T01:32:31;6.30;;;5.70;;
10383;SDS011;5238;43.508;4.980;2023-04-19T01:34:59;10.45;;;6.05;;
10383;SDS011;5238;43.508;4.980;2023-04-19T01:37:26;6.75;;;5.82;;
10383;SDS011;5238;43.508;4.980;2023-04-19T01:39:57;7.50;;;5.82;;
10383;SDS011;5238;43.508;4.980;2023-04-19T01:42:24;5.97;;;5.18;;
10383;SDS011;5238;43.508;4.980;2023-04-19T01:47:47;8.43;;;4.85;;
10383;SDS011;5238;43.508;4.980;2023-04-19T01:50:31;6.72;;;5.85;;
10383;SDS011;5238;43.508;4.980;2023-04-19T01:53:01;6.78;;;5.30;;
10383;SDS011;5238;43.508;4.980;2023-04-19T01:55:31;7.55;;;5.60;;
10383;SDS011;5238;43.508;4.980;2023-04-19T01:58:02;9.50;;;5.22;;
10383;SDS011;5238;43.508;4.980;2023-04-19T02:00:29;7.15;;;5.00;;
10383;SDS011;5238;43.508;4.980;2023-04-19T02:02:56;5.10;;;4.60;;
10383;SDS011;5238;43.508;4.980;2023-04-19T02:05:37;5.85;;;4.95;;
10383;SDS011;5238;43.508;4.980;2023-04-19T02:08:06;4.90;;;4.20;;
10383;SDS011;5238;43.508;4.980;2023-04-19T02:10:37;5.68;;;4.22;;
10383;SDS011;5238;43.508;4.980;2023-04-19T02:13:08;4.60;;;3.88;;
10383;SDS011;5238;43.508;4.980;2023-04-19T02:15:35;4.45;;;3.72;;
10383;SDS011;5238;43.508;4.980;2023-04-19T02:18:03;5.78;;;4.40;;
10383;SDS011;5238;43.508;4.980;2023-04-19T02:20:35;3.95;;;3.22;;
10383;SDS011;5238;43.508;4.980;2023-04-19T02:23:03;4.35;;;3.80;;
10383;SDS011;5238;43.508;4.980;2023-04-19T02:25:50;4.22;;;3.83;;
10383;SDS011;5238;43.508;4.980;2023-04-19T02:28:17;3.55;;;3.20;;
10383;SDS011;5238;43.508;4.980;2023-04-19T02:30:46;4.85;;;3.15;;
10383;SDS011;5238;43.508;4.980;2023-04-19T02:33:16;4.55;;;3.38;;
10383;SDS011;5238;43.508;4.980;2023-04-19T02:35:48;3.78;;;3.47;;
10383;SDS011;5238;43.508;4.980;2023-04-19T02:38:15;3.20;;;2.90;;
10383;SDS011;5238;43.508;4.980;2023-04-19T02:40:42;3.45;;;3.15;;
10383;SDS011;5238;43.508;4.980;2023-04-19T02:43:16;3.85;;;3.05;;
10383;SDS011;5238;43.508;4.980;2023-04-19T02:45:49;3.88;;;3.38;;
10383;SDS011;5238;43.508;4.980;2023-04-19T02:48:17;4.13;;;3.70;;
10383;SDS011;5238;43.508;4.980;2023-04-19T02:50:45;5.85;;;4.22;;
10383;SDS011;5238;43.508;4.980;2023-04-19T02:53:12;5.85;;;3.60;;
10383;SDS011;5238;43.508;4.980;2023-04-19T02:55:42;4.35;;;3.95;;
10383;SDS011;5238;43.508;4.980;2023-04-19T02:58:09;4.80;;;4.18;;
10383;SDS011;5238;43.508;4.980;2023-04-19T03:00:39;3.80;;;3.50;;
10383;SDS011;5238;43.508;4.980;2023-04-19T03:03:12;4.20;;;3.80;;
10383;SDS011;5238;43.508;4.980;2023-04-19T03:05:42;4.45;;;3.88;;
10383;SDS011;5238;43.508;4.980;2023-04-19T03:08:10;5.80;;;3.80;;
10383;SDS011;5238;43.508;4.980;2023-04-19T03:10:36;4.75;;;4.20;;
10383;SDS011;5238;43.508;4.980;2023-04-19T03:13:05;4.00;;;3.40;;
10383;SDS011;5238;43.508;4.980;2023-04-19T03:15:35;4.38;;;3.97;;
10383;SDS011;5238;43.508;4.980;2023-04-19T03:18:05;4.00;;;3.58;;
10383;SDS011;5238;43.508;4.980;2023-04-19T03:20:35;4.00;;;3.63;;
10383;SDS011;5238;43.508;4.980;2023-04-19T03:23:05;4.53;;;4.13;;
10383;SDS011;5238;43.508;4.980;2023-04-19T03:25:32;4.93;;;4.13;;
10383;SDS011;5238;43.508;4.980;2023-04-19T03:28:03;4.15;;;3.75;;
10383;SDS011;5238;43.508;4.980;2023-04-19T03:30:30;3.30;;;3.10;;
10383;SDS011;5238;43.508;4.980;2023-04-19T03:33:11;4.15;;;3.08;;
10383;SDS011;5238;43.508;4.980;2023-04-19T03:35:42;3.50;;;3.20;;
10383;SDS011;5238;43.508;4.980;2023-04-19T03:38:09;4.47;;;3.00;;
10383;SDS011;5238;43.508;4.980;2023-04-19T03:40:37;2.90;;;2.40;;
10383;SDS011;5238;43.508;4.980;2023-04-19T03:43:04;2.88;;;2.65;;
10383;SDS011;5238;43.508;4.980;2023-04-19T03:45:33;2.85;;;2.65;;
10383;SDS011;5238;43.508;4.980;2023-04-19T03:48:05;4.95;;;2.95;;
10383;SDS011;5238;43.508;4.980;2023-04-19T03:50:33;3.05;;;2.85;;
10383;SDS011;5238;43.508;4.980;2023-04-19T03:53:14;3.08;;;2.88;;
10383;SDS011;5238;43.508;4.980;2023-04-19T03:55:43;2.70;;;2.20;;
10383;SDS011;5238;43.508;4.980;2023-04-19T03:58:14;3.15;;;2.35;;
10383;SDS011;5238;43.508;4.980;2023-04-19T04:00:43;2.80;;;2.60;;
10383;SDS011;5238;43.508;4.980;2023-04-19T04:03:19;2.97;;;2.67;;
10383;SDS011;5238;43.508;4.980;2023-04-19T04:05:46;2.88;;;2.60;;
10383;SDS011;5238;43.508;4.980;2023-04-19T04:08:14;3.63;;;2.80;;
10383;SDS011;5238;43.508;4.980;2023-04-19T04:10:41;2.70;;;2.50;;
10383;SDS011;5238;43.508;4.980;2023-04-19T04:13:14;2.97;;;2.65;;
10383;SDS011;5238;43.508;4.980;2023-04-19T04:15:42;4.30;;;2.28;;
10383;SDS011;5238;43.508;4.980;2023-04-19T04:18:11;2.17;;;2.08;;
10383;SDS011;5238;43.508;4.980;2023-04-19T04:23:23;4.40;;;2.63;;
10383;SDS011;5238;43.508;4.980;2023-04-19T04:25:55;4.10;;;3.80;;
10383;SDS011;5238;43.508;4.980;2023-04-19T04:28:29;2.40;;;2.20;;
10383;SDS011;5238;43.508;4.980;2023-04-19T04:30:57;3.35;;;2.67;;
10383;SDS011;5238;43.508;4.980;2023-04-19T04:33:24;3.45;;;2.67;;
10383;SDS011;5238;43.508;4.980;2023-04-19T04:35:55;2.60;;;2.40;;
10383;SDS011;5238;43.508;4.980;2023-04-19T04:38:23;4.07;;;2.78;;
10383;SDS011;5238;43.508;4.980;2023-04-19T04:40:52;2.75;;;2.45;;
10383;SDS011;5238;43.508;4.980;2023-04-19T04:43:21;3.17;;;2.60;;
10383;SDS011;5238;43.508;4.980;2023-04-19T04:45:49;3.22;;;2.80;;
10383;SDS011;5238;43.508;4.980;2023-04-19T04:48:21;4.13;;;2.78;;
10383;SDS011;5238;43.508;4.980;2023-04-19T04:50:57;3.15;;;2.85;;
10383;SDS011;5238;43.508;4.980;2023-04-19T04:53:26;2.70;;;2.50;;
10383;SDS011;5238;43.508;4.980;2023-04-19T04:55:56;3.80;;;2.78;;
10383;SDS011;5238;43.508;4.980;2023-04-19T04:58:23;3.35;;;2.65;;
10383;SDS011;5238;43.508;4.980;2023-04-19T05:00:53;3.78;;;3.38;;
10383;SDS011;5238;43.508;4.980;2023-04-19T05:03:21;3.13;;;2.60;;
10383;SDS011;5238;43.508;4.980;2023-04-19T05:05:50;3.05;;;2.25;;
10383;SDS011;5238;43.508;4.980;2023-04-19T05:08:19;2.65;;;2.45;;
10383;SDS011;5238;43.508;4.980;2023-04-19T05:10:49;3.75;;;2.42;;
10383;SDS011;5238;43.508;4.980;2023-04-19T05:13:18;4.05;;;2.72;;
10383;SDS011;5238;43.508;4.980;2023-04-19T05:15:45;5.00;;;2.83;;
10383;SDS011;5238;43.508;4.980;2023-04-19T05:18:13;4.47;;;2.70;;
10383;SDS011;5238;43.508;4.980;2023-04-19T05:20:41;2.97;;;2.28;;
10383;SDS011;5238;43.508;4.980;2023-04-19T05:23:16;3.97;;;2.30;;
10383;SDS011;5238;43.508;4.980;2023-04-19T05:25:47;4.05;;;2.25;;
10383;SDS011;5238;43.508;4.980;2023-04-19T05:28:16;2.50;;;2.30;;
10383;SDS011;5238;43.508;4.980;2023-04-19T05:30:45;3.15;;;2.60;;
10383;SDS011;5238;43.508;4.980;2023-04-19T05:33:17;3.08;;;2.30;;
10383;SDS011;5238;43.508;4.980;2023-04-19T05:35:46;4.13;;;2.40;;
10383;SDS011;5238;43.508;4.980;2023-04-19T05:38:18;3.25;;;2.95;;
10383;SDS011;5238;43.508;4.980;2023-04-19T05:40:54;2.60;;;2.40;;
10383;SDS011;5238;43.508;4.980;2023-04-19T05:43:21;2.97;;;2.30;;
10383;SDS011;5238;43.508;4.980;2023-04-19T05:45:48;3.10;;;2.30;;
10383;SDS011;5238;43.508;4.980;2023-04-19T05:48:17;2.22;;;2.03;;
10383;SDS011;5238;43.508;4.980;2023-04-19T05:50:47;2.15;;;1.75;;
10383;SDS011;5238;43.508;4.980;2023-04-19T05:53:16;3.03;;;1.55;;
10383;SDS011;5238;43.508;4.980;2023-04-19T05:55:47;2.22;;;2.03;;
10383;SDS011;5238;43.508;4.980;2023-04-19T05:58:17;2.45;;;1.60;;
10383;SDS011;5238;43.508;4.980;2023-04-19T06:00:50;2.17;;;1.80;;
10383;SDS011;5238;43.508;4.980;2023-04-19T06:03:19;2.85;;;1.73;;
10383;SDS011;5238;43.508;4.980;2023-04-19T06:05:46;1.73;;;1.63;;
10383;SDS011;5238;43.508;4.980;2023-04-19T06:08:13;1.85;;;1.60;;
10383;SDS011;5238;43.508;4.980;2023-04-19T06:10:41;1.95;;;1.80;;
10383;SDS011;5238;43.508;4.980;2023-04-19T06:13:13;1.60;;;1.50;;
10383;SDS011;5238;43.508;4.980;2023-04-19T06:15:41;2.40;;;1.80;;
10383;SDS011;5238;43.508;4.980;2023-04-19T06:18:08;1.60;;;1.50;;
10383;SDS011;5238;43.508;4.980;2023-04-19T06:20:40;1.67;;;1.58;;
10383;SDS011;5238;43.508;4.980;2023-04-19T06:23:07;1.98;;;1.80;;
10383;SDS011;5238;43.508;4.980;2023-04-19T06:25:38;2.20;;;2.10;;
10383;SDS011;5238;43.508;4.980;2023-04-19T06:28:10;2.08;;;1.65;;
10383;SDS011;5238;43.508;4.980;2023-04-19T06:30:38;2.92;;;2.13;;
10383;SDS011;5238;43.508;4.980;2023-04-19T06:33:13;3.03;;;1.85;;
10383;SDS011;5238;43.508;4.980;2023-04-19T06:35:40;2.83;;;1.58;;
10383;SDS011;5238;43.508;4.980;2023-04-19T06:38:09;7.35;;;2.17;;
10383;SDS011;5238;43.508;4.980;2023-04-19T06:40:36;3.05;;;1.52;;
10383;SDS011;5238;43.508;4.980;2023-04-19T06:43:06;2.92;;;1.52;;
10383;SDS011;5238;43.508;4.980;2023-04-19T06:45:34;1.83;;;1.73;;
10383;SDS011;5238;43.508;4.980;2023-04-19T06:48:01;1.80;;;1.70;;
10383;SDS011;5238;43.508;4.980;2023-04-19T06:50:30;1.75;;;1.65;;
10383;SDS011;5238;43.508;4.980;2023-04-19T06:53:00;2.50;;;1.80;;
10383;SDS011;5238;43.508;4.980;2023-04-19T06:55:27;1.70;;;1.60;;
10383;SDS011;5238;43.508;4.980;2023-04-19T06:57:56;1.58;;;1.48;;
10383;SDS011;5238;43.508;4.980;2023-04-19T07:00:23;1.67;;;1.48;;
10383;SDS011;5238;43.508;4.980;2023-04-19T07:02:53;1.75;;;1.65;;
10383;SDS011;5238;43.508;4.980;2023-04-19T07:05:35;2.08;;;1.63;;
10383;SDS011;5238;43.508;4.980;2023-04-19T07:08:02;1.80;;;1.70;;
10383;SDS011;5238;43.508;4.980;2023-04-19T07:10:29;3.08;;;1.70;;
10383;SDS011;5238;43.508;4.980;2023-04-19T07:12:56;2.40;;;1.98;;
10383;SDS011;5238;43.508;4.980;2023-04-19T07:15:23;3.15;;;1.92;;
10383;SDS011;5238;43.508;4.980;2023-04-19T07:17:52;1.83;;;1.73;;
10383;SDS011;5238;43.508;4.980;2023-04-19T07:20:19;1.80;;;1.70;;
10383;SDS011;5238;43.508;4.980;2023-04-19T07:22:48;2.38;;;1.63;;
10383;SDS011;5238;43.508;4.980;2023-04-19T07:25:19;2.85;;;1.50;;
10383;SDS011;5238;43.508;4.980;2023-04-19T07:27:47;1.90;;;1.80;;
10383;SDS011;5238;43.508;4.980;2023-04-19T07:30:14;2.05;;;1.70;;
10383;SDS011;5238;43.508;4.980;2023-04-19T07:32:45;4.78;;;1.88;;
10383;SDS011;5238;43.508;4.980;2023-04-19T07:35:23;1.50;;;1.40;;
10383;SDS011;5238;43.508;4.980;2023-04-19T07:37:53;1.35;;;1.23;;
10383;SDS011;5238;43.508;4.980;2023-04-19T07:40:23;8.00;;;1.98;;
10383;SDS011;5238;43.508;4.980;2023-04-19T07:42:50;1.98;;;1.55;;
10383;SDS011;5238;43.508;4.980;2023-04-19T07:45:20;1.70;;;1.50;;
10383;SDS011;5238;43.508;4.980;2023-04-19T07:47:47;5.18;;;1.88;;
10383;SDS011;5238;43.508;4.980;2023-04-19T07:50:16;1.83;;;1.70;;
10383;SDS011;5238;43.508;4.980;2023-04-19T07:52:43;2.03;;;1.85;;
10383;SDS011;5238;43.508;4.980;2023-04-19T07:55:11;2.00;;;1.85;;
10383;SDS011;5238;43.508;4.980;2023-04-19T07:57:41;1.65;;;1.55;;
10383;SDS011;5238;43.508;4.980;2023-04-19T08:00:15;4.70;;;1.92;;
10383;SDS011;5238;43.508;4.980;2023-04-19T08:02:47;3.30;;;2.00;;
10383;SDS011;5238;43.508;4.980;2023-04-19T08:05:15;2.10;;;2.00;;
10383;SDS011;5238;43.508;4.980;2023-04-19T08:07:44;3.60;;;1.80;;
10383;SDS011;5238;43.508;4.980;2023-04-19T08:10:16;2.30;;;2.08;;
10383;SDS011;5238;43.508;4.980;2023-04-19T08:12:44;1.92;;;1.67;;
10383;SDS011;5238;43.508;4.980;2023-04-19T08:15:11;2.35;;;2.25;;
10383;SDS011;5238;43.508;4.980;2023-04-19T08:17:40;2.17;;;1.98;;
10383;SDS011;5238;43.508;4.980;2023-04-19T08:20:10;2.15;;;1.90;;
10383;SDS011;5238;43.508;4.980;2023-04-19T08:22:39;1.67;;;1.50;;
10383;SDS011;5238;43.508;4.980;2023-04-19T08:25:07;3.20;;;1.55;;
10383;SDS011;5238;43.508;4.980;2023-04-19T08:27:36;1.80;;;1.70;;
10383;SDS011;5238;43.508;4.980;2023-04-19T08:30:08;2.28;;;2.17;;
10383;SDS011;5238;43.508;4.980;2023-04-19T08:32:36;1.88;;;1.63;;
10383;SDS011;5238;43.508;4.980;2023-04-19T08:35:07;1.80;;;1.70;;
10383;SDS011;5238;43.508;4.980;2023-04-19T08:37:37;2.60;;;1.88;;
10383;SDS011;5238;43.508;4.980;2023-04-19T08:40:07;2.95;;;2.20;;
10383;SDS011;5238;43.508;4.980;2023-04-19T12:03:21;2.45;;;2.00;;
10383;SDS011;5238;43.508;4.980;2023-04-19T12:05:53;1.73;;;1.60;;
10383;SDS011;5238;43.508;4.980;2023-04-19T12:17:20;3.10;;;1.90;;
10383;SDS011;5238;43.508;4.980;2023-04-19T12:19:48;2.17;;;2.08;;
10383;SDS011;5238;43.508;4.980;2023-04-19T12:22:16;2.28;;;1.92;;
10383;SDS011;5238;43.508;4.980;2023-04-19T12:24:45;2.83;;;1.90;;
10383;SDS011;5238;43.508;4.980;2023-04-19T12:27:29;1.85;;;1.75;;
10383;SDS011;5238;43.508;4.980;2023-04-19T12:30:11;3.33;;;2.10;;
10383;SDS011;5238;43.508;4.980;2023-04-19T12:32:48;2.00;;;1.80;;
10383;SDS011;5238;43.508;4.980;2023-04-19T12:35:23;1.83;;;1.73;;
10383;SDS011;5238;43.508;4.980;2023-04-19T12:37:55;1.88;;;1.77;;
10383;SDS011;5238;43.508;4.980;2023-04-19T12:40:37;2.30;;;2.10;;
10383;SDS011;5238;43.508;4.980;2023-04-19T12:43:11;1.80;;;1.70;;
10383;SDS011;5238;43.508;4.980;2023-04-19T12:45:39;1.98;;;1.73;;
10383;SDS011;5238;43.508;4.980;2023-04-19T12:48:11;2.03;;;1.90;;
10383;SDS011;5238;43.508;4.980;2023-04-19T12:50:47;4.10;;;2.22;;
10383;SDS011;5238;43.508;4.980;2023-04-19T12:53:33;4.70;;;2.40;;
10383;SDS011;5238;43.508;4.980;2023-04-19T12:56:01;2.28;;;2.10;;
10383;SDS011;5238;43.508;4.980;2023-04-19T12:58:30;2.00;;;1.90;;
10383;SDS011;5238;43.508;4.980;2023-04-19T13:01:10;2.20;;;2.00;;
10383;SDS011;5238;43.508;4.980;2023-04-19T13:03:43;2.42;;;2.30;;
10383;SDS011;5238;43.508;4.980;2023-04-19T13:06:18;2.40;;;2.20;;
10383;SDS011;5238;43.508;4.980;2023-04-19T13:08:51;2.08;;;1.88;;
10383;SDS011;5238;43.508;4.980;2023-04-19T13:11:19;2.63;;;1.85;;
10383;SDS011;5238;43.508;4.980;2023-04-19T13:13:48;1.85;;;1.65;;
10383;SDS011;5238;43.508;4.980;2023-04-19T13:16:30;1.85;;;1.70;;
10383;SDS011;5238;43.508;4.980;2023-04-19T13:19:04;2.20;;;2.00;;
10383;SDS011;5238;43.508;4.980;2023-04-19T13:21:37;3.35;;;2.10;;
10383;SDS011;5238;43.508;4.980;2023-04-19T13:24:16;1.88;;;1.77;;
10383;SDS011;5238;43.508;4.980;2023-04-19T13:26:45;2.42;;;1.88;;
10383;SDS011;5238;43.508;4.980;2023-04-19T13:29:26;3.40;;;1.80;;
10383;SDS011;5238;43.508;4.980;2023-04-19T13:32:06;1.63;;;1.50;;
10383;SDS011;5238;43.508;4.980;2023-04-19T13:34:37;3.60;;;1.92;;
10383;SDS011;5238;43.508;4.980;2023-04-19T13:37:14;2.25;;;1.92;;
10383;SDS011;5238;43.508;4.980;2023-04-19T13:39:42;2.63;;;2.30;;
10383;SDS011;5238;43.508;4.980;2023-04-19T13:42:11;2.97;;;1.77;;
10383;SDS011;5238;43.508;4.980;2023-04-19T13:44:39;5.38;;;2.20;;
10383;SDS011;5238;43.508;4.980;2023-04-19T13:47:06;2.65;;;1.67;;
10383;SDS011;5238;43.508;4.980;2023-04-19T13:49:34;3.67;;;2.55;;
10383;SDS011;5238;43.508;4.980;2023-04-19T13:52:06;3.65;;;2.28;;
10383;SDS011;5238;43.508;4.980;2023-04-19T13:54:41;3.65;;;2.30;;
10383;SDS011;5238;43.508;4.980;2023-04-19T13:57:10;6.90;;;3.45;;
10383;SDS011;5238;43.508;4.980;2023-04-19T13:59:42;3.95;;;2.78;;
10383;SDS011;5238;43.508;4.980;2023-04-19T14:02:11;4.18;;;2.17;;
10383;SDS011;5238;43.508;4.980;2023-04-19T14:04:39;3.60;;;2.60;;
10383;SDS011;5238;43.508;4.980;2023-04-19T14:07:09;3.78;;;2.65;;
10383;SDS011;5238;43.508;4.980;2023-04-19T14:09:38;3.45;;;2.47;;
10383;SDS011;5238;43.508;4.980;2023-04-19T14:12:06;3.10;;;2.50;;
10383;SDS011;5238;43.508;4.980;2023-04-19T14:14:33;5.75;;;2.47;;
10383;SDS011;5238;43.508;4.980;2023-04-19T14:17:02;3.28;;;2.05;;
10383;SDS011;5238;43.508;4.980;2023-04-19T14:19:30;3.47;;;2.20;;
10383;SDS011;5238;43.508;4.980;2023-04-19T14:22:01;5.13;;;2.15;;
10383;SDS011;5238;43.508;4.980;2023-04-19T14:24:35;4.35;;;2.13;;
10383;SDS011;5238;43.508;4.980;2023-04-19T14:27:12;2.80;;;2.28;;
10383;SDS011;5238;43.508;4.980;2023-04-19T14:29:40;4.22;;;2.47;;
10383;SDS011;5238;43.508;4.980;2023-04-19T14:32:16;6.03;;;2.47;;
10383;SDS011;5238;43.508;4.980;2023-04-19T14:34:46;5.45;;;2.42;;
10383;SDS011;5238;43.508;4.980;2023-04-19T14:37:14;3.97;;;3.05;;
10383;SDS011;5238;43.508;4.980;2023-04-19T14:39:45;6.13;;;3.00;;
10383;SDS011;5238;43.508;4.980;2023-04-19T14:42:15;7.18;;;3.35;;
10383;SDS011;5238;43.508;4.980;2023-04-19T14:44:56;3.28;;;2.20;;
10383;SDS011;5238;43.508;4.980;2023-04-19T14:47:33;4.07;;;2.72;;
10383;SDS011;5238;43.508;4.980;2023-04-19T14:50:13;3.47;;;2.20;;
10383;SDS011;5238;43.508;4.980;2023-04-19T14:52:46;3.50;;;2.20;;
10383;SDS011;5238;43.508;4.980;2023-04-19T14:55:17;3.67;;;2.00;;
10383;SDS011;5238;43.508;4.980;2023-04-19T14:57:46;3.47;;;2.08;;
10383;SDS011;5238;43.508;4.980;2023-04-19T15:00:27;2.47;;;1.90;;
10383;SDS011;5238;43.508;4.980;2023-04-19T15:02:59;3.90;;;1.83;;
10383;SDS011;5238;43.508;4.980;2023-04-19T15:05:40;5.22;;;2.28;;
10383;SDS011;5238;43.508;4.980;2023-04-19T15:08:09;3.90;;;1.92;;
10383;SDS011;5238;43.508;4.980;2023-04-19T15:10:38;2.10;;;1.90;;
10383;SDS011;5238;43.508;4.980;2023-04-19T15:13:10;2.00;;;1.80;;
10383;SDS011;5238;43.508;4.980;2023-04-19T15:15:38;2.38;;;1.75;;
10383;SDS011;5238;43.508;4.980;2023-04-19T15:18:12;2.22;;;2.00;;
10383;SDS011;5238;43.508;4.980;2023-04-19T15:20:47;2.30;;;2.10;;
10383;SDS011;5238;43.508;4.980;2023-04-19T15:23:19;3.15;;;2.45;;
10383;SDS011;5238;43.508;4.980;2023-04-19T15:25:51;2.70;;;2.33;;
10383;SDS011;5238;43.508;4.980;2023-04-19T15:28:22;2.45;;;2.10;;
10383;SDS011;5238;43.508;4.980;2023-04-19T15:30:59;1.73;;;1.60;;
10383;SDS011;5238;43.508;4.980;2023-04-19T15:33:29;2.15;;;2.03;;
10383;SDS011;5238;43.508;4.980;2023-04-19T15:36:02;2.20;;;1.83;;
10383;SDS011;5238;43.508;4.980;2023-04-19T15:38:31;2.40;;;2.00;;
10383;SDS011;5238;43.508;4.980;2023-04-19T15:41:05;2.13;;;1.92;;
10383;SDS011;5238;43.508;4.980;2023-04-19T15:43:34;2.20;;;1.70;;
10383;SDS011;5238;43.508;4.980;2023-04-19T15:46:11;3.70;;;1.98;;
10383;SDS011;5238;43.508;4.980;2023-04-19T15:48:39;3.40;;;1.83;;
10383;SDS011;5238;43.508;4.980;2023-04-19T15:51:07;2.65;;;1.83;;
10383;SDS011;5238;43.508;4.980;2023-04-19T15:53:37;1.75;;;1.65;;
10383;SDS011;5238;43.508;4.980;2023-04-19T15:56:13;2.78;;;1.80;;
10383;SDS011;5238;43.508;4.980;2023-04-19T15:58:49;1.92;;;1.73;;
10383;SDS011;5238;43.508;4.980;2023-04-19T16:01:19;1.80;;;1.70;;
10383;SDS011;5238;43.508;4.980;2023-04-19T16:03:47;2.72;;;1.50;;
10383;SDS011;5238;43.508;4.980;2023-04-19T16:06:15;1.63;;;1.52;;
10383;SDS011;5238;43.508;4.980;2023-04-19T16:08:42;2.63;;;1.77;;
10383;SDS011;5238;43.508;4.980;2023-04-19T16:11:12;2.20;;;1.80;;
10383;SDS011;5238;43.508;4.980;2023-04-19T16:13:39;2.17;;;1.98;;
10383;SDS011;5238;43.508;4.980;2023-04-19T16:16:20;1.92;;;1.70;;
10383;SDS011;5238;43.508;4.980;2023-04-19T16:18:54;1.83;;;1.58;;
10383;SDS011;5238;43.508;4.980;2023-04-19T16:21:23;1.83;;;1.73;;
10383;SDS011;5238;43.508;4.980;2023-04-19T16:23:57;1.75;;;1.45;;
10383;SDS011;5238;43.508;4.980;2023-04-19T16:26:35;1.67;;;1.52;;
10383;SDS011;5238;43.508;4.980;2023-04-19T16:29:05;1.60;;;1.50;;
10383;SDS011;5238;43.508;4.980;2023-04-19T16:31:33;1.85;;;1.70;;
10383;SDS011;5238;43.508;4.980;2023-04-19T16:34:03;1.60;;;1.50;;
10383;SDS011;5238;43.508;4.980;2023-04-19T16:36:35;2.72;;;1.98;;
10383;SDS011;5238;43.508;4.980;2023-04-19T16:39:05;1.80;;;1.70;;
10383;SDS011;5238;43.508;4.980;2023-04-19T16:41:41;2.30;;;2.10;;
10383;SDS011;5238;43.508;4.980;2023-04-19T16:44:13;2.17;;;1.98;;
10383;SDS011;5238;43.508;4.980;2023-04-19T16:46:41;2.72;;;1.73;;
10383;SDS011;5238;43.508;4.980;2023-04-19T16:49:10;2.20;;;1.60;;
10383;SDS011;5238;43.508;4.980;2023-04-19T16:51:39;5.28;;;1.80;;
10383;SDS011;5238;43.508;4.980;2023-04-19T16:54:11;9.35;;;5.15;;
10383;SDS011;5238;43.508;4.980;2023-04-19T16:56:41;5.82;;;4.25;;
10383;SDS011;5238;43.508;4.980;2023-04-19T16:59:20;3.22;;;2.15;;
10383;SDS011;5238;43.508;4.980;2023-04-19T17:02:02;2.58;;;1.98;;
10383;SDS011;5238;43.508;4.980;2023-04-19T17:04:44;3.63;;;1.90;;
10383;SDS011;5238;43.508;4.980;2023-04-19T17:07:12;2.67;;;1.77;;
10383;SDS011;5238;43.508;4.980;2023-04-19T17:09:42;2.53;;;1.70;;
10383;SDS011;5238;43.508;4.980;2023-04-19T17:15:01;2.10;;;1.70;;
10383;SDS011;5238;43.508;4.980;2023-04-19T17:17:32;3.72;;;1.48;;
10383;SDS011;5238;43.508;4.980;2023-04-19T17:20:07;2.80;;;1.65;;
10383;SDS011;5238;43.508;4.980;2023-04-19T17:22:49;3.08;;;2.00;;
10383;SDS011;5238;43.508;4.980;2023-04-19T17:25:22;3.30;;;1.83;;
10383;SDS011;5238;43.508;4.980;2023-04-19T17:28:04;4.53;;;1.90;;
10383;SDS011;5238;43.508;4.980;2023-04-19T17:30:35;1.63;;;1.52;;
10383;SDS011;5238;43.508;4.980;2023-04-19T17:33:03;2.60;;;1.65;;
10383;SDS011;5238;43.508;4.980;2023-04-19T17:35:32;3.63;;;1.90;;
10383;SDS011;5238;43.508;4.980;2023-04-19T17:38:07;3.05;;;1.67;;
10383;SDS011;5238;43.508;4.980;2023-04-19T17:40:38;6.00;;;2.00;;
10383;SDS011;5238;43.508;4.980;2023-04-19T17:43:14;1.95;;;1.60;;
10383;SDS011;5238;43.508;4.980;2023-04-19T17:45:42;5.10;;;1.73;;
10383;SDS011;5238;43.508;4.980;2023-04-19T17:48:11;2.78;;;1.88;;
10383;SDS011;5238;43.508;4.980;2023-04-19T17:50:40;4.50;;;1.70;;
10383;SDS011;5238;43.508;4.980;2023-04-19T17:53:09;2.47;;;1.70;;
10383;SDS011;5238;43.508;4.980;2023-04-19T17:55:36;2.65;;;1.80;;
10383;SDS011;5238;43.508;4.980;2023-04-19T17:58:19;3.00;;;1.67;;
10383;SDS011;5238;43.508;4.980;2023-04-19T18:00:47;3.70;;;1.80;;
10383;SDS011;5238;43.508;4.980;2023-04-19T18:03:14;4.38;;;1.80;;
10383;SDS011;5238;43.508;4.980;2023-04-19T18:05:48;2.13;;;1.67;;
10383;SDS011;5238;43.508;4.980;2023-04-19T18:08:17;3.30;;;1.60;;
10383;SDS011;5238;43.508;4.980;2023-04-19T18:10:49;2.83;;;1.80;;
10383;SDS011;5238;43.508;4.980;2023-04-19T18:13:19;3.15;;;1.70;;
10383;SDS011;5238;43.508;4.980;2023-04-19T18:15:49;2.65;;;1.30;;
10383;SDS011;5238;43.508;4.980;2023-04-19T18:18:17;2.25;;;1.65;;
10383;SDS011;5238;43.508;4.980;2023-04-19T18:20:44;3.05;;;1.75;;
10383;SDS011;5238;43.508;4.980;2023-04-19T18:23:26;3.88;;;2.22;;
10383;SDS011;5238;43.508;4.980;2023-04-19T18:25:54;4.20;;;1.95;;
10383;SDS011;5238;43.508;4.980;2023-04-19T18:28:23;3.58;;;1.85;;
10383;SDS011;5238;43.508;4.980;2023-04-19T18:30:51;1.90;;;1.70;;
10383;SDS011;5238;43.508;4.980;2023-04-19T18:33:27;4.82;;;1.77;;
10383;SDS011;5238;43.508;4.980;2023-04-19T18:35:54;3.42;;;2.42;;
10383;SDS011;5238;43.508;4.980;2023-04-19T18:38:22;2.30;;;2.10;;
10383;SDS011;5238;43.508;4.980;2023-04-19T18:40:51;2.60;;;1.75;;
10383;SDS011;5238;43.508;4.980;2023-04-19T18:43:30;3.50;;;1.90;;
10383;SDS011;5238;43.508;4.980;2023-04-19T18:46:03;3.50;;;2.42;;
10383;SDS011;5238;43.508;4.980;2023-04-19T18:48:31;2.45;;;1.85;;
10383;SDS011;5238;43.508;4.980;2023-04-19T18:51:07;4.22;;;2.15;;
10383;SDS011;5238;43.508;4.980;2023-04-19T18:53:36;2.63;;;1.85;;
10383;SDS011;5238;43.508;4.980;2023-04-19T18:56:17;2.63;;;2.15;;
10383;SDS011;5238;43.508;4.980;2023-04-19T18:58:55;2.17;;;1.98;;
10383;SDS011;5238;43.508;4.980;2023-04-19T19:01:24;2.22;;;2.03;;